createdAt,value
2018-11-14T00:00:19.568Z,8.03
2018-11-14T00:02:47.710Z,7.13
2018-11-14T00:05:16.958Z,9.27
2018-11-14T00:07:45.131Z,9.03
2018-11-14T00:10:13.378Z,7.73
2018-11-14T00:12:41.497Z,8.73
2018-11-14T00:15:11.952Z,9.73
2018-11-14T00:17:40.174Z,9.80
2018-11-14T00:20:09.286Z,10.57
2018-11-14T00:22:37.451Z,8.83
2018-11-14T00:25:05.858Z,8.67
2018-11-14T00:27:34.103Z,8.33
2018-11-14T00:30:02.438Z,7.90
2018-11-14T00:32:31.032Z,6.50
2018-11-14T00:34:59.916Z,6.83
2018-11-14T00:37:27.689Z,6.37
2018-11-14T00:39:55.856Z,5.90
2018-11-14T00:42:24.046Z,6.60
2018-11-14T00:44:53.291Z,6.20
2018-11-14T00:47:21.513Z,5.90
2018-11-14T00:49:49.769Z,6.60
2018-11-14T00:52:17.932Z,7.13
2018-11-14T00:54:47.064Z,6.60
2018-11-14T00:57:16.340Z,6.40
2018-11-14T00:59:46.572Z,7.37
2018-11-14T01:02:14.763Z,8.57
2018-11-14T01:04:42.936Z,7.33
2018-11-14T01:07:11.127Z,8.07
2018-11-14T01:09:40.080Z,8.83
2018-11-14T01:12:08.235Z,9.00
2018-11-14T01:14:36.889Z,7.70
2018-11-14T01:17:05.476Z,7.77
2018-11-14T01:19:33.622Z,8.93
2018-11-14T01:22:01.803Z,7.97
2018-11-14T01:24:29.972Z,7.23
2018-11-14T01:26:59.151Z,8.03
2018-11-14T01:29:27.241Z,7.07
2018-11-14T01:31:55.427Z,6.57
2018-11-14T01:34:23.579Z,5.80
2018-11-14T01:36:51.768Z,5.10
2018-11-14T01:39:19.930Z,5.90
2018-11-14T01:41:48.491Z,5.60
2018-11-14T01:44:16.650Z,6.53
2018-11-14T01:46:44.810Z,6.40
2018-11-14T01:49:13.759Z,6.20
2018-11-14T01:51:41.946Z,6.10
2018-11-14T01:54:10.152Z,6.10
2018-11-14T01:56:38.375Z,6.10
2018-11-14T01:59:07.362Z,6.63
2018-11-14T02:01:36.240Z,6.17
2018-11-14T02:04:04.596Z,6.60
2018-11-14T02:06:32.755Z,6.57
2018-11-14T02:09:00.918Z,6.43
2018-11-14T02:11:29.103Z,7.67
2018-11-14T02:13:57.286Z,7.97
2018-11-14T02:16:25.465Z,7.53
2018-11-14T02:18:53.709Z,7.23
2018-11-14T02:21:22.194Z,7.50
2018-11-14T02:23:50.370Z,6.77
2018-11-14T02:26:18.558Z,7.30
2018-11-14T02:28:46.723Z,7.50
2018-11-14T02:31:14.898Z,7.87
2018-11-14T02:33:43.070Z,8.70
2018-11-14T02:36:11.261Z,7.67
2018-11-14T02:38:39.419Z,7.20
2018-11-14T02:41:07.586Z,6.97
2018-11-14T02:43:35.779Z,7.20
2018-11-14T02:46:04.922Z,7.00
2018-11-14T02:48:33.095Z,6.30
2018-11-14T02:51:12.618Z,7.00
2018-11-14T02:53:40.842Z,6.57
2018-11-14T02:56:10.708Z,6.50
2018-11-14T02:58:38.958Z,5.90
2018-11-14T03:01:07.622Z,6.20
2018-11-14T03:03:35.823Z,5.97
2018-11-14T03:06:03.998Z,5.47
2018-11-14T03:08:32.185Z,4.93
2018-11-14T03:11:00.362Z,6.00
2018-11-14T03:13:28.517Z,6.73
2018-11-14T03:15:56.698Z,5.63
2018-11-14T03:18:24.875Z,6.17
2018-11-14T03:20:53.054Z,6.20
2018-11-14T03:23:21.475Z,6.03
2018-11-14T03:25:49.644Z,6.30
2018-11-14T03:28:17.818Z,6.30
2018-11-14T03:30:45.979Z,6.00
2018-11-14T03:33:14.154Z,5.93
2018-11-14T03:35:47.706Z,6.57
2018-11-14T03:38:15.874Z,5.73
2018-11-14T03:40:44.044Z,5.70
2018-11-14T03:43:12.215Z,5.67
2018-11-14T03:45:40.428Z,5.90
2018-11-14T03:48:08.989Z,6.13
2018-11-14T03:50:37.475Z,5.67
2018-11-14T03:53:06.039Z,6.17
2018-11-14T03:55:34.306Z,6.27
2018-11-14T03:58:02.547Z,7.00
2018-11-14T04:00:30.776Z,7.20
2018-11-14T04:02:58.943Z,7.77
2018-11-14T04:05:27.279Z,7.63
2018-11-14T04:07:55.435Z,6.20
2018-11-14T04:10:23.607Z,6.10
2018-11-14T04:12:52.030Z,6.30
2018-11-14T04:15:20.179Z,6.17
2018-11-14T04:17:48.362Z,5.53
2018-11-14T04:20:17.325Z,5.03
2018-11-14T04:22:46.111Z,5.73
2018-11-14T04:25:15.670Z,5.50
2018-11-14T04:27:44.739Z,5.30
2018-11-14T04:30:16.132Z,5.20
2018-11-14T04:32:45.137Z,5.67
2018-11-14T04:35:14.429Z,5.30
2018-11-14T04:37:42.608Z,5.50
2018-11-14T04:40:14.490Z,5.60
2018-11-14T04:42:42.683Z,5.70
2018-11-14T04:45:13.404Z,5.90
2018-11-14T04:47:41.998Z,5.30
2018-11-14T04:50:13.658Z,5.00
2018-11-14T04:52:41.938Z,5.37
2018-11-14T04:55:11.974Z,5.87
2018-11-14T04:57:40.644Z,5.90
2018-11-14T05:00:10.345Z,5.63
2018-11-14T05:02:40.147Z,6.50
2018-11-14T05:05:10.379Z,5.50
2018-11-14T05:07:38.870Z,5.83
2018-11-14T05:10:09.938Z,5.90
2018-11-14T05:12:38.152Z,5.33
2018-11-14T05:15:08.355Z,5.70
2018-11-14T05:17:36.554Z,5.27
2018-11-14T05:20:05.048Z,5.43
2018-11-14T05:22:33.211Z,6.63
2018-11-14T05:25:01.375Z,6.23
2018-11-14T05:27:31.598Z,5.70
2018-11-14T05:30:03.670Z,6.90
2018-11-14T05:32:31.830Z,6.40
2018-11-14T05:35:00.003Z,7.87
2018-11-14T05:37:28.189Z,6.43
2018-11-14T05:39:56.434Z,7.40
2018-11-14T05:42:25.724Z,7.30
2018-11-14T05:44:54.833Z,6.30
2018-11-14T05:47:23.930Z,8.07
2018-11-14T05:49:54.402Z,8.97
2018-11-14T05:52:22.632Z,10.00
2018-11-14T05:54:50.910Z,11.50
2018-11-14T05:57:19.074Z,8.53
2018-11-14T05:59:47.243Z,8.43
2018-11-14T06:02:15.411Z,9.00
2018-11-14T06:04:43.685Z,8.70
2018-11-14T06:07:12.257Z,10.67
2018-11-14T06:09:40.293Z,9.97
2018-11-14T06:12:08.503Z,9.93
2018-11-14T06:14:36.718Z,10.60
2018-11-14T06:17:05.020Z,10.70
2018-11-14T06:19:33.238Z,11.57
2018-11-14T06:22:01.611Z,9.57
2018-11-14T06:24:29.700Z,8.30
2018-11-14T06:26:57.870Z,9.40
2018-11-14T06:29:26.134Z,9.47
2018-11-14T06:31:54.615Z,9.63
2018-11-14T06:34:22.774Z,12.50
2018-11-14T06:36:50.978Z,12.33
2018-11-14T06:39:19.444Z,12.13
2018-11-14T06:41:48.499Z,12.00
2018-11-14T06:44:17.543Z,12.53
2018-11-14T06:46:45.780Z,13.73
2018-11-14T06:49:13.972Z,11.60
2018-11-14T06:51:42.205Z,12.13
2018-11-14T06:54:10.636Z,10.83
2018-11-14T06:56:39.196Z,9.27
2018-11-14T06:59:07.740Z,7.27
2018-11-14T07:01:36.805Z,7.07
2018-11-14T07:04:05.042Z,7.30
2018-11-14T07:06:33.235Z,8.30
2018-11-14T07:09:01.419Z,8.83
2018-11-14T07:11:29.576Z,8.23
2018-11-14T07:13:57.740Z,8.80
2018-11-14T07:16:26.437Z,8.07
2018-11-14T07:18:54.676Z,7.97
2018-11-14T07:21:22.880Z,7.43
2018-11-14T07:23:51.038Z,7.00
2018-11-14T07:26:20.234Z,6.17
2018-11-14T07:28:48.390Z,7.13
2018-11-14T07:31:16.587Z,7.60
2018-11-14T07:33:44.787Z,7.23
2018-11-14T07:36:12.954Z,8.20
2018-11-14T07:38:49.310Z,8.80
2018-11-14T07:41:21.608Z,7.73
2018-11-14T07:43:50.886Z,7.23
2018-11-14T07:46:19.401Z,7.43
2018-11-14T07:48:48.521Z,7.00
2018-11-14T07:51:16.690Z,7.63
2018-11-14T07:53:44.875Z,8.03
2018-11-14T07:56:13.107Z,7.07
2018-11-14T07:58:41.331Z,8.07
2018-11-14T08:01:09.574Z,8.60
2018-11-14T08:03:37.751Z,9.00
2018-11-14T08:06:05.916Z,10.33
2018-11-14T08:08:34.090Z,9.73
2018-11-14T08:11:02.252Z,8.43
2018-11-14T08:13:31.570Z,9.63
2018-11-14T08:16:00.550Z,8.80
2018-11-14T08:18:28.735Z,8.43
2018-11-14T08:20:57.512Z,8.60
2018-11-14T08:23:25.682Z,7.80
2018-11-14T08:25:54.048Z,9.83
2018-11-14T08:28:22.202Z,10.97
2018-11-14T08:30:50.371Z,9.60
2018-11-14T08:33:18.573Z,10.37
2018-11-14T08:35:46.758Z,11.50
2018-11-14T08:38:14.944Z,11.53
2018-11-14T08:40:43.133Z,11.53
2018-11-14T08:43:11.330Z,12.80
2018-11-14T08:45:39.509Z,11.90
2018-11-14T08:48:08.486Z,10.43
2018-11-14T08:50:36.679Z,9.97
2018-11-14T08:53:05.499Z,9.30
2018-11-14T08:55:33.667Z,9.90
2018-11-14T08:58:01.943Z,10.30
2018-11-14T09:00:30.459Z,10.90
2018-11-14T09:02:58.633Z,9.87
2018-11-14T09:05:26.790Z,9.80
2018-11-14T09:07:55.033Z,10.67
2018-11-14T09:10:24.406Z,12.67
2018-11-14T09:12:52.618Z,11.40
2018-11-14T09:15:21.966Z,9.53
2018-11-14T09:17:50.340Z,9.47
2018-11-14T09:20:23.747Z,8.73
2018-11-14T09:22:51.958Z,8.93
2018-11-14T09:25:24.710Z,8.97
2018-11-14T09:27:52.878Z,10.37
2018-11-14T09:30:22.283Z,10.00
2018-11-14T09:32:50.491Z,10.40
2018-11-14T09:35:19.745Z,11.40
2018-11-14T09:37:47.911Z,10.00
2018-11-14T09:40:17.650Z,11.63
2018-11-14T09:42:45.838Z,11.13
2018-11-14T09:45:15.465Z,10.97
2018-11-14T09:47:43.621Z,13.20
2018-11-14T09:50:16.945Z,11.77
2018-11-14T09:52:46.499Z,12.23
2018-11-14T09:55:14.660Z,13.40
2018-11-14T09:57:43.632Z,15.67
2018-11-14T10:00:14.590Z,15.47
2018-11-14T10:02:43.554Z,17.60
2018-11-14T10:05:14.195Z,21.73
2018-11-14T10:07:42.752Z,18.97
2018-11-14T10:10:12.122Z,16.27
2018-11-14T10:12:41.258Z,21.77
2018-11-14T10:15:12.655Z,17.20
2018-11-14T10:17:41.504Z,17.77
2018-11-14T10:20:12.036Z,18.23
2018-11-14T10:22:42.400Z,16.83
2018-11-14T10:25:11.210Z,16.77
2018-11-14T10:27:40.162Z,15.40
2018-11-14T10:30:12.176Z,12.60
2018-11-14T10:32:43.204Z,17.53
2018-11-14T10:35:11.951Z,16.27
2018-11-14T10:37:40.480Z,15.50
2018-11-14T10:40:11.783Z,15.93
2018-11-14T10:42:40.098Z,16.67
2018-11-14T10:45:09.713Z,16.53
2018-11-14T10:47:37.917Z,16.17
2018-11-14T10:50:08.193Z,16.83
2018-11-14T10:52:36.579Z,17.70
2018-11-14T10:55:05.558Z,16.60
2018-11-14T10:57:33.741Z,18.23
2018-11-14T11:00:07.787Z,19.53
2018-11-14T11:02:41.491Z,19.87
2018-11-14T11:05:15.018Z,17.57
2018-11-14T11:07:48.624Z,16.63
2018-11-14T11:10:23.201Z,16.17
2018-11-14T11:12:56.548Z,17.10
2018-11-14T11:15:30.225Z,14.63
2018-11-14T11:18:00.755Z,16.73
2018-11-14T11:20:28.942Z,15.50
2018-11-14T11:22:57.138Z,14.63
2018-11-14T11:25:26.311Z,14.80
2018-11-14T11:27:54.527Z,13.30
2018-11-14T11:30:22.716Z,14.03
2018-11-14T11:32:50.953Z,15.00
2018-11-14T11:35:19.216Z,14.00
2018-11-14T11:37:47.387Z,14.47
2018-11-14T11:40:15.592Z,15.40
2018-11-14T11:42:43.870Z,18.15
2018-11-14T11:45:12.055Z,16.23
2018-11-14T11:47:40.365Z,16.27
2018-11-14T11:50:08.549Z,16.63
2018-11-14T11:52:36.739Z,18.17
2018-11-14T11:55:05.770Z,15.73
2018-11-14T11:57:33.957Z,18.33
2018-11-14T12:00:02.242Z,18.90
2018-11-14T12:02:30.321Z,21.17
2018-11-14T12:04:58.515Z,19.07
2018-11-14T12:07:26.682Z,19.50
2018-11-14T12:09:54.858Z,15.90
2018-11-14T12:12:23.055Z,16.87
2018-11-14T12:14:51.238Z,16.63
2018-11-14T12:17:19.419Z,23.67
2018-11-14T12:19:47.626Z,26.30
2018-11-14T12:22:16.232Z,19.60
2018-11-14T12:24:44.411Z,19.57
2018-11-14T12:27:12.603Z,29.60
2018-11-14T12:29:40.796Z,147.20
2018-11-14T12:32:08.999Z,21.23
2018-11-14T12:34:37.253Z,21.47
2018-11-14T12:37:05.425Z,30.50
2018-11-14T12:39:33.618Z,118.20
2018-11-14T12:42:01.781Z,37.53
2018-11-14T12:44:30.174Z,49.03
2018-11-14T12:46:58.361Z,24.87
2018-11-14T12:49:26.576Z,22.87
2018-11-14T12:51:55.746Z,25.30
2018-11-14T12:54:23.918Z,23.40
2018-11-14T12:56:52.070Z,22.43
2018-11-14T12:59:20.327Z,77.57
2018-11-14T13:01:48.468Z,91.67
2018-11-14T13:04:20.125Z,25.73
2018-11-14T13:06:48.393Z,79.47
2018-11-14T13:09:16.544Z,24.70
2018-11-14T13:11:44.862Z,40.67
2018-11-14T13:14:13.042Z,24.10
2018-11-14T13:16:41.320Z,22.90
2018-11-14T13:19:09.500Z,21.83
2018-11-14T13:21:37.666Z,23.00
2018-11-14T13:24:05.873Z,21.70
2018-11-14T13:26:34.040Z,30.90
2018-11-14T13:29:02.348Z,21.73
2018-11-14T13:31:30.534Z,22.07
2018-11-14T13:33:58.730Z,28.33
2018-11-14T13:36:26.930Z,32.07
2018-11-14T13:38:55.119Z,22.57
2018-11-14T13:41:23.610Z,23.13
2018-11-14T13:43:51.878Z,21.07
2018-11-14T13:46:20.818Z,20.93
2018-11-14T13:48:49.225Z,19.20
2018-11-14T13:51:17.489Z,22.37
2018-11-14T13:53:45.581Z,24.33
2018-11-14T13:56:13.736Z,62.27
2018-11-14T13:58:41.959Z,24.73
2018-11-14T14:01:10.136Z,22.10
2018-11-14T14:03:38.294Z,20.83
2018-11-14T14:06:06.490Z,20.33
2018-11-14T14:08:34.651Z,31.97
2018-11-14T14:11:02.811Z,20.60
2018-11-14T14:13:31.010Z,20.50
2018-11-14T14:15:59.251Z,21.77
2018-11-14T14:18:27.410Z,22.87
2018-11-14T14:20:55.636Z,22.53
2018-11-14T14:23:23.803Z,22.13
2018-11-14T14:25:51.966Z,23.33
2018-11-14T14:28:20.175Z,37.73
2018-11-14T14:30:48.361Z,27.30
2018-11-14T14:33:17.394Z,27.50
2018-11-14T14:35:45.542Z,22.47
2018-11-14T14:38:13.823Z,25.10
2018-11-14T14:40:42.940Z,24.73
2018-11-14T14:43:11.102Z,26.47
2018-11-14T14:45:39.288Z,27.70
2018-11-14T14:48:07.507Z,27.67
2018-11-14T14:50:35.680Z,28.07
2018-11-14T14:53:03.895Z,28.07
2018-11-14T14:55:32.500Z,26.23
2018-11-14T14:58:00.662Z,27.87
2018-11-14T15:00:28.955Z,27.17
2018-11-14T15:02:57.278Z,30.70
2018-11-14T15:05:25.460Z,31.57
2018-11-14T15:07:53.675Z,30.37
2018-11-14T15:10:36.475Z,31.03
2018-11-14T15:15:50.563Z,30.80
2018-11-14T15:18:18.742Z,30.30
2018-11-14T15:20:47.777Z,31.73
2018-11-14T15:23:15.976Z,31.57
2018-11-14T15:25:44.134Z,32.33
2018-11-14T15:28:18.574Z,34.30
2018-11-14T15:30:46.744Z,31.97
2018-11-14T15:33:14.904Z,32.40
2018-11-14T15:35:43.076Z,35.40
2018-11-14T15:38:11.254Z,31.40
2018-11-14T15:40:39.435Z,29.47
2018-11-14T15:43:07.626Z,28.83
2018-11-14T15:45:35.824Z,32.80
2018-11-14T15:48:03.998Z,29.90
2018-11-14T15:50:32.186Z,31.27
2018-11-14T15:53:00.421Z,30.13
2018-11-14T15:55:28.633Z,25.47
2018-11-14T15:57:57.231Z,30.73
2018-11-14T16:00:26.569Z,24.17
2018-11-14T16:02:54.939Z,26.47
2018-11-14T16:05:24.566Z,26.07
2018-11-14T16:07:54.917Z,26.53
2018-11-14T16:10:24.169Z,23.63
2018-11-14T16:12:52.341Z,25.93
2018-11-14T16:15:22.972Z,29.33
2018-11-14T16:17:51.175Z,36.00
2018-11-14T16:20:21.563Z,32.07
2018-11-14T16:22:49.798Z,25.33
2018-11-14T16:25:19.100Z,40.50
2018-11-14T16:27:48.259Z,74.57
2018-11-14T16:30:18.981Z,49.00
2018-11-14T16:32:48.166Z,43.03
2018-11-14T16:35:17.134Z,32.70
2018-11-14T16:37:45.341Z,32.30
2018-11-14T16:40:16.273Z,25.73
2018-11-14T16:42:44.467Z,32.43
2018-11-14T16:45:13.357Z,32.37
2018-11-14T16:47:41.822Z,35.50
2018-11-14T16:50:11.749Z,30.23
2018-11-14T16:52:39.990Z,27.67
2018-11-14T16:55:09.225Z,24.53
2018-11-14T16:57:38.418Z,27.03
2018-11-14T17:00:09.450Z,33.10
2018-11-14T17:02:37.646Z,29.10
2018-11-14T17:05:05.836Z,28.07
2018-11-14T17:07:34.043Z,27.13
2018-11-14T17:10:02.257Z,28.47
2018-11-14T17:12:30.413Z,28.30
2018-11-14T17:14:59.683Z,27.00
2018-11-14T17:17:27.825Z,25.97
2018-11-14T17:19:56.013Z,27.57
2018-11-14T17:22:24.911Z,25.70
2018-11-14T17:24:53.067Z,25.87
2018-11-14T17:27:22.251Z,24.47
2018-11-14T17:29:50.520Z,25.27
2018-11-14T17:32:19.786Z,21.33
2018-11-14T17:34:47.987Z,19.90
2018-11-14T17:37:16.174Z,21.33
2018-11-14T17:39:44.385Z,19.70
2018-11-14T17:42:12.769Z,20.10
2018-11-14T17:44:40.779Z,19.13
2018-11-14T17:47:08.985Z,17.03
2018-11-14T17:49:37.241Z,17.63
2018-11-14T17:52:05.477Z,19.07
2018-11-14T17:54:33.709Z,15.37
2018-11-14T17:57:07.697Z,14.53
2018-11-14T17:59:36.183Z,15.80
2018-11-14T18:02:04.706Z,14.67
2018-11-14T18:04:32.891Z,14.87
2018-11-14T18:07:01.124Z,14.53
2018-11-14T18:09:29.362Z,15.27
2018-11-14T18:12:06.842Z,15.57
2018-11-14T18:14:44.903Z,14.87
2018-11-14T18:17:13.712Z,14.57
2018-11-14T18:19:50.293Z,18.23
2018-11-14T18:22:28.376Z,15.77
2018-11-14T18:25:06.370Z,15.87
2018-11-14T18:27:36.019Z,19.87
2018-11-14T18:30:05.851Z,17.97
2018-11-14T18:32:33.983Z,18.03
2018-11-14T18:35:02.154Z,19.03
2018-11-14T18:37:30.388Z,19.20
2018-11-14T18:39:58.585Z,19.53
2018-11-14T18:42:26.777Z,21.70
2018-11-14T18:44:54.962Z,21.43
2018-11-14T18:47:23.150Z,21.73
2018-11-14T18:49:51.375Z,22.40
2018-11-14T18:52:19.578Z,21.70
2018-11-14T18:54:47.815Z,21.47
2018-11-14T18:57:16.009Z,22.10
2018-11-14T18:59:44.491Z,21.43
2018-11-14T19:02:12.704Z,21.80
2018-11-14T19:04:40.894Z,24.50
2018-11-14T19:07:09.904Z,24.90
2018-11-14T19:09:38.171Z,24.53
2018-11-14T19:12:06.631Z,24.73
2018-11-14T19:14:34.930Z,25.67
2018-11-14T19:17:03.254Z,24.87
2018-11-14T19:19:31.949Z,25.67
2018-11-14T19:22:00.226Z,23.73
2018-11-14T19:24:33.421Z,24.73
2018-11-14T19:27:01.598Z,24.37
2018-11-14T19:29:29.846Z,23.97
2018-11-14T19:31:58.057Z,22.90
2018-11-14T19:34:26.562Z,22.40
2018-11-14T19:36:54.774Z,23.17
2018-11-14T19:39:23.519Z,22.97
2018-11-14T19:41:51.781Z,24.30
2018-11-14T19:44:20.344Z,25.33
2018-11-14T19:46:52.520Z,26.40
2018-11-14T19:49:21.144Z,25.03
2018-11-14T19:51:49.643Z,25.20
2018-11-14T19:54:19.184Z,25.50
2018-11-14T19:56:48.207Z,24.37
2018-11-14T19:59:17.130Z,25.00
2018-11-14T20:01:46.730Z,25.97
2018-11-14T20:04:15.651Z,24.77
2018-11-14T20:06:43.910Z,24.37
2018-11-14T20:09:12.995Z,26.67
2018-11-14T20:11:45.761Z,25.27
2018-11-14T20:14:14.342Z,25.70
2018-11-14T20:16:43.577Z,65.73
2018-11-14T20:19:12.402Z,53.93
2018-11-14T20:21:40.786Z,45.00
2018-11-14T20:24:09.024Z,47.87
2018-11-14T20:26:41.111Z,36.63
2018-11-14T20:29:10.269Z,36.27
2018-11-14T20:31:40.075Z,30.27
2018-11-14T20:34:10.779Z,28.03
2018-11-14T20:36:38.972Z,28.27
2018-11-14T20:39:09.768Z,29.83
2018-11-14T20:41:37.979Z,27.47
2018-11-14T20:44:07.146Z,24.50
2018-11-14T20:46:35.382Z,27.10
2018-11-14T20:49:03.737Z,26.07
2018-11-14T20:51:32.077Z,25.87
2018-11-14T20:54:01.277Z,27.87
2018-11-14T20:56:31.589Z,26.87
2018-11-14T20:59:00.272Z,26.70
2018-11-14T21:01:29.287Z,26.57
2018-11-14T21:03:58.264Z,25.20
2018-11-14T21:06:26.841Z,26.00
2018-11-14T21:08:55.053Z,27.13
2018-11-14T21:11:23.822Z,25.50
2018-11-14T21:13:52.473Z,26.77
2018-11-14T21:16:21.592Z,26.30
2018-11-14T21:18:53.470Z,26.20
2018-11-14T21:21:21.663Z,25.80
2018-11-14T21:23:49.869Z,25.90
2018-11-14T21:26:19.399Z,27.57
2018-11-14T21:28:47.591Z,26.97
2018-11-14T21:31:16.840Z,26.07
2018-11-14T21:33:45.010Z,26.70
2018-11-14T21:36:13.265Z,26.30
2018-11-14T21:38:43.266Z,27.00
2018-11-14T21:41:11.478Z,26.80
2018-11-14T21:43:40.015Z,26.23
2018-11-14T21:46:08.153Z,27.47
2018-11-14T21:48:37.175Z,27.77
2018-11-14T21:51:05.945Z,27.97
2018-11-14T21:53:34.259Z,28.27
2018-11-14T21:56:02.443Z,28.03
2018-11-14T21:58:31.498Z,28.50
2018-11-14T22:01:02.672Z,27.10
2018-11-14T22:03:30.850Z,27.97
2018-11-14T22:05:59.030Z,27.57
2018-11-14T22:08:27.207Z,28.43
2018-11-14T22:10:56.272Z,26.33
2018-11-14T22:13:24.434Z,28.20
2018-11-14T22:15:52.602Z,25.27
2018-11-14T22:18:21.691Z,25.93
2018-11-14T22:20:50.887Z,28.07
2018-11-14T22:23:19.066Z,27.30
2018-11-14T22:25:47.259Z,26.97
2018-11-14T22:28:15.778Z,25.20
2018-11-14T22:30:43.955Z,27.73
2018-11-14T22:33:12.126Z,28.13
2018-11-14T22:35:40.302Z,27.27
2018-11-14T22:38:08.482Z,27.13
2018-11-14T22:40:36.910Z,27.40
2018-11-14T22:43:05.115Z,29.87
2018-11-14T22:45:33.601Z,27.37
2018-11-14T22:48:01.770Z,27.17
2018-11-14T22:50:29.928Z,25.80
2018-11-14T22:52:58.117Z,25.03
2018-11-14T22:55:26.958Z,26.93
2018-11-14T22:57:55.506Z,26.40
2018-11-14T23:00:32.415Z,26.87
2018-11-14T23:03:03.319Z,25.90
2018-11-14T23:05:31.553Z,25.73
2018-11-14T23:08:00.174Z,25.20
2018-11-14T23:10:28.664Z,25.13
2018-11-14T23:12:56.902Z,24.03
2018-11-14T23:15:25.511Z,26.47
2018-11-14T23:17:54.987Z,24.87
2018-11-14T23:20:23.207Z,24.90
2018-11-14T23:22:51.788Z,24.77
2018-11-14T23:25:20.469Z,22.87
2018-11-14T23:27:49.889Z,24.23
2018-11-14T23:30:19.159Z,23.97
2018-11-14T23:32:49.681Z,24.47
2018-11-14T23:35:19.297Z,24.47
2018-11-14T23:37:53.716Z,24.70
2018-11-14T23:40:22.004Z,24.37
2018-11-14T23:42:50.816Z,23.50
2018-11-14T23:45:19.933Z,24.37
2018-11-14T23:47:49.236Z,24.03
2018-11-14T23:50:18.796Z,24.30
2018-11-14T23:52:48.866Z,24.17
2018-11-14T23:55:18.750Z,23.10
2018-11-14T23:57:47.063Z,22.83
